createdAt,value
2019-04-11T00:00:53.958Z,64.65
2019-04-11T00:03:23.248Z,64.73
2019-04-11T00:05:52.871Z,64.73
2019-04-11T00:08:22.124Z,64.71
2019-04-11T00:10:51.332Z,65.14
2019-04-11T00:13:25.195Z,65.25
2019-04-11T00:15:51.453Z,64.96
2019-04-11T00:18:20.865Z,65.14
2019-04-11T00:20:50.617Z,65.36
2019-04-11T00:23:19.927Z,65.46
2019-04-11T00:25:49.602Z,65.64
2019-04-11T00:28:18.803Z,65.54
2019-04-11T00:30:48.348Z,65.63
2019-04-11T00:33:18.197Z,66.02
2019-04-11T00:35:48.075Z,66.17
2019-04-11T00:38:18.041Z,66.36
2019-04-11T00:40:47.308Z,66.43
2019-04-11T00:43:29.858Z,66.56
2019-04-11T00:45:47.999Z,66.92
2019-04-11T00:48:17.627Z,66.35
2019-04-11T00:50:47.614Z,66.48
2019-04-11T00:53:18.883Z,66.97
2019-04-11T00:55:48.124Z,67.04
2019-04-11T00:58:17.368Z,67.00
2019-04-11T01:00:47.121Z,67.28
2019-04-11T01:03:16.324Z,67.45
2019-04-11T01:05:47.751Z,67.54
2019-04-11T01:08:17.722Z,67.47
2019-04-11T01:10:47.818Z,67.28
2019-04-11T01:13:17.588Z,67.62
2019-04-11T01:15:54.643Z,67.75
2019-04-11T01:18:23.851Z,68.05
2019-04-11T01:20:53.690Z,68.06
2019-04-11T01:23:22.861Z,67.94
2019-04-11T01:25:53.504Z,67.91
2019-04-11T01:28:22.734Z,68.16
2019-04-11T01:31:01.064Z,68.28
2019-04-11T01:33:30.341Z,68.34
2019-04-11T01:35:59.545Z,68.33
2019-04-11T01:38:30.459Z,68.50
2019-04-11T01:41:00.286Z,68.55
2019-04-11T01:43:30.674Z,68.50
2019-04-11T01:46:00.138Z,68.46
2019-04-11T01:48:41.719Z,68.52
2019-04-11T01:51:11.630Z,68.27
2019-04-11T01:53:42.284Z,68.34
2019-04-11T01:56:13.425Z,68.56
2019-04-11T01:58:42.760Z,69.06
2019-04-11T02:01:25.081Z,68.80
2019-04-11T02:04:13.989Z,68.94
2019-04-11T02:06:43.530Z,69.07
2019-04-11T02:09:15.737Z,69.16
2019-04-11T02:11:45.729Z,69.50
2019-04-11T02:14:16.925Z,69.13
2019-04-11T02:16:45.827Z,69.54
2019-04-11T02:19:16.162Z,69.48
2019-04-11T02:21:46.226Z,69.31
2019-04-11T02:24:22.139Z,69.60
2019-04-11T02:27:16.838Z,69.82
2019-04-11T02:29:46.763Z,69.81
2019-04-11T02:32:15.970Z,70.10
2019-04-11T02:34:46.093Z,69.98
2019-04-11T02:37:17.328Z,69.84
2019-04-11T02:39:47.274Z,70.22
2019-04-11T02:42:17.104Z,70.38
2019-04-11T02:45:03.473Z,70.67
2019-04-11T02:47:22.894Z,70.81
2019-04-11T02:49:49.600Z,71.04
2019-04-11T02:52:19.558Z,71.34
2019-04-11T02:54:49.305Z,71.18
2019-04-11T02:57:18.919Z,71.40
2019-04-11T02:59:49.053Z,71.99
2019-04-11T03:02:19.549Z,71.99
2019-04-11T03:04:50.936Z,72.29
2019-04-11T03:07:22.723Z,72.36
2019-04-11T03:09:53.569Z,72.50
2019-04-11T03:12:24.061Z,72.75
2019-04-11T03:15:13.023Z,72.84
2019-04-11T03:17:33.114Z,73.09
2019-04-11T03:20:09.420Z,72.91
2019-04-11T03:22:29.907Z,73.14
2019-04-11T03:25:00.310Z,73.25
2019-04-11T03:27:30.524Z,73.46
2019-04-11T03:30:00.751Z,73.71
2019-04-11T03:33:16.646Z,73.88
2019-04-11T03:36:01.263Z,73.55
2019-04-11T03:40:27.072Z,73.82
2019-04-11T03:42:50.274Z,74.19
2019-04-11T03:45:25.862Z,74.54
2019-04-11T03:47:52.521Z,74.10
2019-04-11T03:50:15.336Z,74.30
2019-04-11T03:52:40.779Z,74.34
2019-04-11T03:55:11.137Z,74.63
2019-04-11T03:57:41.724Z,74.86
2019-04-11T04:00:14.273Z,75.03
2019-04-11T04:02:42.181Z,74.95
2019-04-11T04:05:13.161Z,75.19
2019-04-11T04:07:44.184Z,74.95
2019-04-11T04:10:19.804Z,75.11
2019-04-11T04:12:48.914Z,75.13
2019-04-11T04:15:55.833Z,75.40
2019-04-11T04:18:48.395Z,75.35
2019-04-11T04:21:31.145Z,75.44
2019-04-11T04:24:03.697Z,75.80
2019-04-11T04:26:33.565Z,76.08
2019-04-11T04:29:04.422Z,75.94
2019-04-11T04:31:34.998Z,75.86
2019-04-11T04:34:04.259Z,76.25
2019-04-11T04:36:34.797Z,76.36
2019-04-11T04:39:05.728Z,76.67
2019-04-11T04:41:44.043Z,76.87
2019-04-11T04:44:08.549Z,76.61
2019-04-11T04:46:52.584Z,76.65
2019-04-11T04:49:11.006Z,76.84
2019-04-11T04:51:41.571Z,76.88
2019-04-11T04:54:12.124Z,76.74
2019-04-11T04:56:43.099Z,76.94
2019-04-11T04:59:14.063Z,77.14
2019-04-11T05:01:44.283Z,76.72
2019-04-11T05:04:15.757Z,76.55
2019-04-11T05:06:48.219Z,76.52
2019-04-11T05:09:15.934Z,76.59
2019-04-11T05:11:46.520Z,76.77
2019-04-11T05:14:15.818Z,76.83
2019-04-11T05:16:46.180Z,76.36
2019-04-11T05:19:15.325Z,76.84
2019-04-11T05:21:45.465Z,76.91
2019-04-11T05:24:14.746Z,76.61
2019-04-11T05:26:44.093Z,76.45
2019-04-11T05:29:13.265Z,76.34
2019-04-11T05:31:42.783Z,76.56
2019-04-11T05:34:11.999Z,76.59
2019-04-11T05:36:41.158Z,76.69
2019-04-11T05:39:10.701Z,76.73
2019-04-11T05:41:43.078Z,76.32
2019-04-11T05:44:11.019Z,76.56
2019-04-11T05:46:49.198Z,76.24
2019-04-11T05:49:21.180Z,75.71
2019-04-11T05:52:02.192Z,75.55
2019-04-11T05:54:38.687Z,76.01
2019-04-11T05:57:07.137Z,75.68
2019-04-11T05:59:37.063Z,75.49
2019-04-11T06:02:17.088Z,75.52
2019-04-11T06:04:54.894Z,75.11
2019-04-11T06:07:27.305Z,75.22
2019-04-11T06:10:06.028Z,75.30
2019-04-11T06:13:02.937Z,74.46
2019-04-11T06:15:36.277Z,74.65
2019-04-11T06:18:25.214Z,74.60
2019-04-11T06:20:49.361Z,73.75
2019-04-11T06:23:45.573Z,73.89
2019-04-11T06:26:47.046Z,73.81
2019-04-11T06:29:35.156Z,73.88
2019-04-11T06:32:21.763Z,73.09
2019-04-11T06:34:57.732Z,72.79
2019-04-11T06:37:45.908Z,73.03
2019-04-11T06:40:38.964Z,72.38
2019-04-11T06:43:16.989Z,72.02
2019-04-11T06:46:09.017Z,71.60
2019-04-11T06:48:53.923Z,72.16
2019-04-11T06:51:37.815Z,71.39
2019-04-11T06:54:16.972Z,70.18
2019-04-11T06:56:47.743Z,70.37
2019-04-11T06:59:23.945Z,70.06
2019-04-11T07:01:53.214Z,70.01
2019-04-11T07:04:25.837Z,69.97
2019-04-11T07:06:56.139Z,100.00
2019-04-11T07:10:06.740Z,69.41
2019-04-11T07:12:45.584Z,68.64
2019-04-11T07:15:29.402Z,68.20
2019-04-11T07:18:16.221Z,67.44
2019-04-11T07:20:56.860Z,66.60
2019-04-11T07:23:44.686Z,66.23
2019-04-11T07:26:32.971Z,65.26
2019-04-11T07:29:23.943Z,65.57
2019-04-11T07:32:25.715Z,65.06
2019-04-11T07:35:12.987Z,64.94
2019-04-11T07:37:44.741Z,64.11
2019-04-11T07:40:36.649Z,63.61
2019-04-11T07:43:25.177Z,63.24
2019-04-11T07:46:17.056Z,62.96
2019-04-11T07:48:46.911Z,63.18
2019-04-11T07:51:23.918Z,62.48
2019-04-11T07:53:54.625Z,61.60
2019-04-11T07:56:58.698Z,62.31
2019-04-11T08:00:02.222Z,61.72
2019-04-11T08:03:08.497Z,61.36
2019-04-11T08:05:56.600Z,59.92
2019-04-11T08:09:02.800Z,61.10
2019-04-11T08:11:51.911Z,60.68
2019-04-11T08:14:59.327Z,59.30
2019-04-11T08:17:37.598Z,58.72
2019-04-11T08:20:33.223Z,58.45
2019-04-11T08:23:07.584Z,58.37
2019-04-11T08:26:07.410Z,56.99
2019-04-11T08:28:40.696Z,57.02
2019-04-11T08:31:48.689Z,56.68
2019-04-11T08:34:20.237Z,56.09
2019-04-11T08:37:11.607Z,56.34
2019-04-11T08:39:45.018Z,55.67
2019-04-11T08:42:40.676Z,54.74
2019-04-11T08:45:12.335Z,54.33
2019-04-11T08:47:52.140Z,53.77
2019-04-11T08:50:26.075Z,53.49
2019-04-11T08:53:32.959Z,53.11
2019-04-11T08:56:03.945Z,53.10
2019-04-11T08:58:53.750Z,52.63
2019-04-11T09:01:24.322Z,52.18
2019-04-11T09:04:13.601Z,51.61
2019-04-11T09:06:43.036Z,50.69
2019-04-11T09:09:47.500Z,50.20
2019-04-11T09:12:18.405Z,50.79
2019-04-11T09:15:10.732Z,50.16
2019-04-11T09:17:58.981Z,49.26
2019-04-11T09:20:40.041Z,48.56
2019-04-11T09:23:11.408Z,48.36
2019-04-11T09:25:59.658Z,47.73
2019-04-11T09:28:57.685Z,46.88
2019-04-11T09:31:48.679Z,48.41
2019-04-11T09:34:35.678Z,48.57
2019-04-11T09:37:36.007Z,47.00
2019-04-11T09:40:26.296Z,47.17
2019-04-11T09:43:13.078Z,46.13
2019-04-11T09:46:10.391Z,47.46
2019-04-11T09:48:57.819Z,46.91
2019-04-11T09:51:44.609Z,46.46
2019-04-11T09:54:21.093Z,44.90
2019-04-11T09:57:12.186Z,46.45
2019-04-11T09:59:51.763Z,47.14
2019-04-11T10:02:39.642Z,45.53
2019-04-11T10:05:09.560Z,46.38
2019-04-11T10:07:57.883Z,45.21
2019-04-11T10:10:46.591Z,44.07
2019-04-11T10:13:24.944Z,42.30
2019-04-11T10:16:16.295Z,41.64
2019-04-11T10:18:57.692Z,39.99
2019-04-11T10:21:26.926Z,40.44
2019-04-11T10:24:18.888Z,39.29
2019-04-11T10:26:52.029Z,38.35
2019-04-11T10:29:46.309Z,40.55
2019-04-11T10:32:17.031Z,39.82
2019-04-11T10:35:06.044Z,36.37
2019-04-11T10:37:37.937Z,37.97
2019-04-11T10:40:26.321Z,40.39
2019-04-11T10:42:55.985Z,40.38
2019-04-11T10:45:43.393Z,38.74
2019-04-11T10:48:13.875Z,36.96
2019-04-11T10:51:20.651Z,35.05
2019-04-11T10:53:53.748Z,38.16
2019-04-11T10:56:39.140Z,39.14
2019-04-11T10:59:09.130Z,39.51
2019-04-11T11:02:04.512Z,40.20
2019-04-11T11:04:39.485Z,39.89
2019-04-11T11:07:12.877Z,40.65
2019-04-11T11:10:09.217Z,40.70
2019-04-11T11:12:45.551Z,40.70
2019-04-11T11:15:29.106Z,41.78
2019-04-11T11:18:39.921Z,41.46
2019-04-11T11:20:58.452Z,41.91
2019-04-11T11:23:43.488Z,40.97
2019-04-11T11:26:19.762Z,41.28
2019-04-11T11:29:08.598Z,41.02
2019-04-11T11:31:40.871Z,41.69
2019-04-11T11:34:32.648Z,40.89
2019-04-11T11:37:22.883Z,41.39
2019-04-11T11:40:14.618Z,41.00
2019-04-11T11:42:58.761Z,41.33
2019-04-11T11:45:37.386Z,40.37
2019-04-11T11:48:23.121Z,38.46
2019-04-11T11:50:52.862Z,40.51
2019-04-11T11:53:33.048Z,39.47
2019-04-11T11:56:03.115Z,38.71
2019-04-11T11:58:57.792Z,38.17
2019-04-11T12:01:24.070Z,38.27
2019-04-11T12:04:11.352Z,38.09
2019-04-11T12:06:41.148Z,37.16
2019-04-11T12:09:28.710Z,37.68
2019-04-11T12:12:02.596Z,36.98
2019-04-11T12:14:53.839Z,37.70
2019-04-11T12:17:34.781Z,37.78
2019-04-11T12:20:13.396Z,38.58
2019-04-11T12:22:44.362Z,38.72
2019-04-11T12:25:22.911Z,39.36
2019-04-11T12:28:07.675Z,37.20
